Latest Weather Observations for Laverton

IDV60901

Issued at 1:51 am EST Monday 31 August 2015 (issued every 10 minutes, with the page automatically refreshed every 10 minutes)

About weather observations | Map of Melbourne area stations | Latest observations for Melbourne area | Other Formats
Station Details ID: 087031 Name: LAVERTON RAAF Lat: -37.86 Lon: 144.76 Height: 20.1 m
Data from the previous 72 hours. | See also: Recent months at Laverton
Date/Time
EST
Tmp

°C
App
Tmp
°C
Dew
Point
°C
Rel
Hum
%
Delta-T

°C
Wind Press
QNH
hPa
Press
MSL
hPa
Rain
since
9 am
mm
Dir
 
Spd
km/h
Gust
km/h
Spd
kts
Gust
kts
31/01:30am 7.5 5.1 5.3 86 1.0 W 7 13 4 7 1022.3 1022.3 0.0
31/01:00am 8.0 4.3 4.4 78 1.6 SW 13 17 7 9 1022.6 1022.6 0.0
31/12:30am 8.6 4.9 4.6 76 1.8 SW 13 17 7 9 1022.6 1022.6 0.0
31/12:00am 8.7 5.5 5.1 78 1.6 W 11 13 6 7 1022.8 1022.8 0.0
 
Date/Time
EST
Tmp

°C
App
Tmp
°C
Dew
Point
°C
Rel
Hum
%
Delta-T

°C
Wind Press
QNH
hPa
Press
MSL
hPa
Rain
since
9 am
mm
Dir
 
Spd
km/h
Gust
km/h
Spd
kts
Gust
kts
30/11:30pm 8.8 6.0 5.2 78 1.6 W 9 13 5 7 1023.0 1023.0 0.0
30/11:00pm 9.0 6.2 5.0 76 1.8 W 9 13 5 7 1023.3 1023.3 0.0
30/10:30pm 9.2 6.3 4.8 74 2.0 WSW 9 13 5 7 1023.6 1023.6 0.0
30/10:00pm 9.4 6.1 4.6 72 2.1 SSW 11 17 6 9 1023.7 1023.7 0.0
30/09:30pm 9.2 6.4 5.0 75 1.9 SSW 9 11 5 6 1023.9 1023.9 0.0
30/09:00pm 9.2 6.3 4.8 74 2.0 SSW 9 13 5 7 1024.1 1024.1 0.0
30/08:30pm 9.3 6.1 5.1 75 1.9 SSW 11 15 6 8 1024.0 1024.0 0.0
30/08:00pm 9.4 5.0 5.0 74 2.0 SSW 17 20 9 11 1023.9 1023.9 0.0
30/07:30pm 9.7 5.3 4.9 72 2.2 S 17 22 9 12 1023.8 1023.8 0.0
30/07:00pm 9.9 5.8 4.5 69 2.4 S 15 19 8 10 1023.7 1023.7 0.0
30/06:30pm 10.0 6.3 4.4 68 2.5 SSW 13 17 7 9 1023.7 1023.7 0.0
30/06:00pm 9.9 6.2 4.3 68 2.5 S 13 19 7 10 1023.4 1023.4 0.0
30/05:30pm 10.0 5.5 4.4 68 2.5 SSW 17 24 9 13 1023.3 1023.3 0.0
30/05:00pm 10.9 6.1 4.6 65 2.8 SSW 19 24 10 13 1023.2 1023.2 0.0
30/04:30pm 11.2 6.3 5.3 67 2.7 SSW 20 28 11 15 1023.2 1023.2 0.0
30/04:00pm 11.3 6.6 5.0 65 2.9 S 19 26 10 14 1023.3 1023.3 0.0
30/03:30pm 10.8 5.9 4.9 67 2.7 S 20 28 11 15 1023.4 1023.4 0.0
30/03:00pm 11.5 6.7 5.4 66 2.8 S 20 28 11 15 1023.5 1023.5 0.0
30/02:30pm 11.2 6.3 5.3 67 2.7 S 20 30 11 16 1023.5 1023.5 0.0
30/02:00pm 11.5 6.7 5.8 68 2.6 S 20 30 11 16 1023.7 1023.7 0.0
30/01:30pm 11.4 6.7 5.9 69 2.6 SSE 20 26 11 14 1023.8 1023.8 0.0
30/01:00pm 11.1 6.5 5.8 70 2.4 S 19 26 10 14 1024.1 1024.1 0.0
30/12:30pm 11.1 6.3 5.4 68 2.6 S 20 26 11 14 1024.3 1024.3 0.0
30/12:00pm 11.4 6.7 5.1 65 2.9 SSW 19 24 10 13 1024.7 1024.7 0.0
30/11:30am 11.5 6.9 5.8 68 2.7 SSW 19 28 10 15 1025.1 1025.1 0.0
30/11:00am 11.3 6.1 5.6 68 2.6 SSW 22 30 12 16 1025.3 1025.3 0.0
30/10:30am 10.8 6.8 6.6 75 2.0 SSW 17 26 9 14 1025.2 1025.2 0.0
30/10:00am 10.7 6.8 7.2 79 1.7 SW 17 24 9 13 1025.4 1025.4 0.0
30/09:30am 9.8 5.9 6.9 82 1.4 WSW 17 22 9 12 1025.7 1025.7 0.0
30/09:00am 9.4 5.5 7.0 85 1.1 WSW 17 22 9 12 1025.7 1025.7 1.4
30/08:30am 8.9 5.0 6.9 87 0.9 WSW 17 22 9 12 1025.8 1025.8 1.4
30/08:00am 8.4 4.8 6.7 89 0.8 WSW 15 20 8 11 1025.7 1025.7 1.4
30/07:30am 8.2 5.0 6.7 90 0.7 WSW 13 17 7 9 1025.3 1025.3 1.4
30/07:00am 8.0 4.8 6.8 92 0.6 WSW 13 19 7 10 1024.8 1024.8 1.4
30/06:30am 8.0 4.8 6.9 93 0.5 WSW 13 17 7 9 1024.7 1024.7 1.4
30/06:00am 8.0 4.8 6.9 93 0.5 WSW 13 19 7 10 1024.5 1024.5 1.4
30/05:30am 8.0 4.5 7.1 94 0.4 WSW 15 20 8 11 1024.3 1024.3 1.4
30/05:00am 8.0 4.5 7.1 94 0.4 WSW 15 20 8 11 1024.4 1024.4 1.4
30/04:30am 8.0 4.9 7.2 95 0.4 WSW 13 19 7 10 1024.3 1024.3 1.4
30/04:00am 7.9 4.4 7.1 95 0.4 WSW 15 24 8 13 1024.3 1024.3 1.4
30/03:30am 8.1 4.6 7.3 95 0.4 WSW 15 20 8 11 1024.5 1024.5 1.4
30/03:00am 8.3 4.2 7.7 96 0.3 WSW 19 24 10 13 1024.6 1024.6 1.4
30/02:34am 8.1 4.3 7.5 96 0.3 WSW 17 22 9 12 1024.7 1024.7 1.4
30/02:30am 8.0 4.2 7.4 96 0.3 WSW 17 20 9 11 1024.7 1024.7 1.2
30/02:11am 8.0 4.5 7.4 96 0.3 WSW 15 19 8 10 1024.8 1024.8 1.2
30/02:00am 8.0 4.9 7.4 96 0.3 WSW 13 19 7 10 1025.0 1025.0 1.2
30/01:37am 8.0 4.9 7.2 95 0.4 W 13 17 7 9 1025.2 1025.2 1.2
30/01:30am 8.0 4.9 7.2 95 0.4 WSW 13 15 7 8 1025.2 1025.2 1.2
30/01:00am 8.2 5.1 7.3 94 0.4 WSW 13 19 7 10 1025.5 1025.5 1.0
30/12:38am 8.3 5.2 7.2 93 0.5 SW 13 17 7 9 1025.6 1025.6 0.8
30/12:30am 8.3 5.2 7.2 93 0.5 WSW 13 17 7 9 1025.6 1025.6 0.8
30/12:29am 8.3 5.2 7.2 93 0.5 WSW 13 17 7 9 1025.6 1025.6 0.8
30/12:00am 8.7 5.2 7.0 89 0.8 WSW 15 20 8 11 1025.8 1025.8 0.8
 
Date/Time
EST
Tmp

°C
App
Tmp
°C
Dew
Point
°C
Rel
Hum
%
Delta-T

°C
Wind Press
QNH
hPa
Press
MSL
hPa
Rain
since
9 am
mm
Dir
 
Spd
km/h
Gust
km/h
Spd
kts
Gust
kts
29/11:58pm 8.7 5.1 6.8 88 0.9 WSW 15 20 8 11 1025.9 1025.9 0.8
29/11:30pm 9.2 4.3 7.0 86 1.0 SW 22 33 12 18 1025.9 1025.9 0.8
29/11:00pm 8.7 4.9 7.5 92 0.6 SW 17 24 9 13 1026.0 1026.0 0.8
29/10:56pm 8.6 4.4 7.4 92 0.6 SW 19 24 10 13 1026.0 1026.0 0.8
29/10:40pm 8.7 3.5 7.3 91 0.7 SW 24 33 13 18 1026.2 1026.2 0.6
29/10:30pm 8.7 4.3 7.3 91 0.7 SW 20 28 11 15 1026.3 1026.3 0.6
29/10:26pm 8.7 4.5 7.3 91 0.7 SW 19 26 10 14 1026.2 1026.2 0.6
29/10:12pm 8.9 4.5 7.4 90 0.7 SSW 20 28 11 15 1026.2 1026.2 0.6
29/10:00pm 9.2 5.8 7.8 91 0.7 SW 15 20 8 11 1026.3 1026.3 0.6
29/09:30pm 9.2 5.1 8.0 92 0.6 SW 19 24 10 13 1026.1 1026.1 0.6
29/09:26pm 9.1 5.0 7.9 92 0.6 SW 19 24 10 13 1026.1 1026.1 0.6
29/09:10pm 9.1 6.1 7.7 91 0.7 SW 13 19 7 10 1026.1 1026.1 0.6
29/09:00pm 9.4 5.7 8.0 91 0.7 SSW 17 22 9 12 1026.1 1026.1 0.4
29/08:39pm 9.3 6.8 8.2 93 0.5 SSW 11 15 6 8 1026.1 1026.1 0.4
29/08:30pm 9.3 6.0 8.2 93 0.5 SSW 15 22 8 12 1026.0 1026.0 0.4
29/08:00pm 9.2 5.8 7.6 90 0.8 SW 15 20 8 11 1026.1 1026.1 0.4
29/07:56pm 9.2 5.4 7.6 90 0.8 SW 17 24 9 13 1026.1 1026.1 0.2
29/07:54pm 9.3 5.5 7.6 89 0.8 SW 17 24 9 13 1026.1 1026.1 0.2
29/07:38pm 9.3 5.9 7.6 89 0.8 WSW 15 20 8 11 1026.0 1026.0 0.2
29/07:30pm 9.3 5.5 7.6 89 0.8 SW 17 22 9 12 1026.0 1026.0 0.2
29/07:22pm 9.5 5.7 7.4 87 1.0 SW 17 24 9 13 1026.0 1026.0 0.2
29/07:00pm 9.4 5.1 6.8 84 1.2 SW 19 28 10 15 1025.9 1025.9 0.2
29/06:30pm 10.3 5.9 7.4 82 1.4 SW 20 30 11 16 1025.7 1025.7 0.2
29/06:00pm 10.2 5.3 6.7 79 1.6 SSW 22 30 12 16 1025.5 1025.5 0.2
29/05:30pm 10.6 4.9 6.7 77 1.8 SW 26 35 14 19 1025.4 1025.4 0.2
29/05:00pm 11.3 4.4 6.6 73 2.2 SSW 32 41 17 22 1025.1 1025.1 0.2
29/04:30pm 11.3 4.2 6.6 73 2.2 SSW 33 46 18 25 1025.1 1025.1 0.2
29/04:00pm 11.2 4.3 6.5 73 2.2 SSW 32 50 17 27 1025.1 1025.1 0.2
29/03:54pm 11.5 4.6 6.6 72 2.3 SSW 32 50 17 27 1025.1 1025.1 0.2
29/03:30pm 10.8 3.4 6.9 77 1.8 SSW 35 46 19 25 1025.2 1025.2 0.2
29/03:00pm 11.0 5.1 7.7 80 1.6 SSW 28 41 15 22 1025.2 1025.2 0.2
29/02:59pm 10.9 5.0 7.6 80 1.6 SSW 28 41 15 22 1025.2 1025.2 0.2
29/02:40pm 10.2 3.6 6.2 76 1.9 SSW 30 43 16 23 1025.3 1025.3 0.2
29/02:30pm 11.6 5.5 6.5 71 2.4 SSW 28 43 15 23 1025.2 1025.2 0.0
29/02:00pm 11.0 5.3 6.7 75 2.0 SW 26 35 14 19 1025.5 1025.5 0.0
29/01:30pm 11.2 5.9 6.7 74 2.1 WSW 24 35 13 19 1025.6 1025.6 0.0
29/01:00pm 10.7 5.0 6.6 76 1.9 WSW 26 35 14 19 1026.1 1026.1 0.0
29/12:30pm 10.4 5.5 6.7 78 1.7 SW 22 30 12 16 1026.4 1026.4 0.0
29/12:18pm 10.0 5.5 7.1 82 1.4 WSW 20 33 11 18 1026.5 1026.5 0.0
29/12:02pm 9.0 3.5 5.7 80 1.5 SW 24 35 13 19 1026.8 1026.8 0.0
29/12:00pm 9.0 3.4 5.4 78 1.6 SW 24 35 13 19 1026.9 1026.9 0.0
29/11:30am 10.1 4.5 5.3 72 2.2 WSW 24 35 13 19 1027.0 1027.0 0.0
29/11:00am 9.0 3.7 5.0 76 1.8 W 22 30 12 16 1027.1 1027.1 0.0
29/10:30am 9.3 3.8 4.1 70 2.3 WSW 22 30 12 16 1027.1 1027.1 0.0
29/10:00am 9.2 4.3 5.0 75 1.9 W 20 26 11 14 1027.1 1027.1 0.0
29/09:30am 8.7 3.8 3.9 72 2.1 SW 19 28 10 15 1027.5 1027.5 0.0
29/09:00am 7.5 3.1 2.6 71 2.0 W 15 20 8 11 1027.5 1027.5 0.6
29/08:30am 7.2 2.8 2.5 72 1.9 WSW 15 22 8 12 1027.4 1027.4 0.6
29/08:00am 5.3 1.1 1.4 76 1.5 W 13 20 7 11 1027.3 1027.3 0.6
29/07:30am 4.6 0.7 1.1 78 1.4 W 11 15 6 8 1027.1 1027.1 0.6
29/07:00am 4.8 0.1 1.1 77 1.4 W 15 19 8 10 1026.9 1026.9 0.6
29/06:30am 5.1 0.1 1.4 77 1.5 WSW 17 20 9 11 1026.7 1026.7 0.6
29/06:00am 5.2 0.6 1.7 78 1.4 WSW 15 20 8 11 1026.4 1026.4 0.6
29/05:30am 4.2 0.7 1.2 81 1.2 WNW 9 13 5 7 1026.4 1026.4 0.6
29/05:00am 5.0 1.2 2.0 81 1.2 W 11 13 6 7 1026.4 1026.4 0.6
29/04:30am 5.4 2.0 1.7 77 1.5 WSW 9 11 5 6 1026.3 1026.3 0.6
29/04:00am 5.6 1.9 2.3 79 1.3 W 11 15 6 8 1026.4 1026.4 0.6
29/03:30am 6.3 2.3 2.9 79 1.4 WSW 13 19 7 10 1026.3 1026.3 0.6
29/03:00am 6.8 3.0 3.9 82 1.2 SW 13 17 7 9 1026.3 1026.3 0.6
29/02:30am 6.3 2.5 3.8 84 1.1 WSW 13 17 7 9 1026.6 1026.6 0.6
29/02:00am 6.6 2.5 4.1 84 1.1 WSW 15 19 8 10 1026.8 1026.8 0.6
29/01:30am 6.4 2.1 3.2 80 1.3 WSW 15 20 8 11 1026.8 1026.8 0.4
29/01:00am 6.5 2.8 2.2 74 1.7 SW 11 15 6 8 1026.9 1026.9 0.2
29/12:30am 6.6 2.8 1.7 71 2.0 W 11 17 6 9 1026.7 1026.7 0.2
29/12:00am 7.0 2.1 1.7 69 2.1 W 17 24 9 13 1026.5 1026.5 0.2
 
Date/Time
EST
Tmp

°C
App
Tmp
°C
Dew
Point
°C
Rel
Hum
%
Delta-T

°C
Wind Press
QNH
hPa
Press
MSL
hPa
Rain
since
9 am
mm
Dir
 
Spd
km/h
Gust
km/h
Spd
kts
Gust
kts
28/11:30pm 6.1 1.5 1.8 74 1.7 W 15 20 8 11 1026.7 1026.7 0.2
28/11:00pm 4.7 0.9 1.7 81 1.2 WNW 11 15 6 8 1027.0 1027.0 0.2
28/10:30pm 4.1 -0.5 1.3 82 1.1 NW 15 17 8 9 1027.1 1027.1 0.2
28/10:00pm 3.8 -0.6 0.5 79 1.2 WNW 13 17 7 9 1027.2 1027.2 0.2
28/09:30pm 6.7 2.5 1.8 71 2.0 WSW 13 17 7 9 1027.2 1027.2 0.2
28/09:00pm 6.9 2.8 2.2 72 1.9 WSW 13 17 7 9 1027.0 1027.0 0.2
28/08:30pm 7.3 3.3 2.6 72 2.0 SW 13 17 7 9 1026.7 1026.7 0.2
28/08:00pm 8.1 4.1 3.0 70 2.1 WSW 13 17 7 9 1026.5 1026.5 0.2
28/07:30pm 8.7 5.2 3.3 69 2.3 SW 11 15 6 8 1026.3 1026.3 0.2
28/07:00pm 8.7 4.7 2.9 67 2.4 SW 13 19 7 10 1026.3 1026.3 0.2
28/06:30pm 9.0 4.7 3.2 67 2.5 SW 15 20 8 11 1026.1 1026.1 0.2
28/06:00pm 9.7 3.6 2.8 62 2.9 SSW 24 35 13 19 1025.8 1025.8 0.2
28/05:30pm 10.1 4.1 3.4 63 2.9 SSW 24 32 13 17 1025.6 1025.6 0.2
28/05:00pm 10.4 4.8 3.4 62 3.0 SSW 22 28 12 15 1025.4 1025.4 0.2
28/04:30pm 10.9 4.8 4.6 65 2.8 S 26 32 14 17 1025.3 1025.3 0.2
28/04:00pm 11.4 5.5 5.7 68 2.6 S 26 37 14 20 1025.1 1025.1 0.2
28/03:30pm 11.8 6.4 6.3 69 2.6 S 24 32 13 17 1025.1 1025.1 0.2
28/03:00pm 11.6 5.4 6.3 70 2.5 S 28 39 15 21 1025.1 1025.1 0.2
28/02:30pm 12.1 7.1 8.0 76 2.0 S 24 32 13 17 1024.9 1024.9 0.2
28/02:00pm 10.9 7.4 8.8 87 1.0 SSE 17 26 9 14 1025.0 1025.0 0.2
28/01:30pm 11.1 8.1 9.2 88 0.9 SSW 15 22 8 12 1025.2 1025.2 0.2
28/01:25pm 11.0 8.0 9.1 88 0.9 SSW 15 19 8 10 1025.2 1025.2 0.2
28/01:05pm 10.7 4.9 8.1 84 1.3 S 28 35 15 19 1025.4 1025.4 0.2
28/01:00pm 11.3 5.0 7.6 78 1.8 S 30 41 16 22 1025.4 1025.4 0.0
28/12:30pm 12.2 6.8 6.5 68 2.7 S 24 32 13 17 1025.6 1025.6 0.0
28/12:00pm 12.7 9.9 8.6 76 2.0 SSW 13 19 7 10 1026.0 1026.0 0.0
28/11:30am 12.0 8.2 7.7 75 2.1 SSW 17 22 9 12 1026.4 1026.4 0.0
28/11:00am 12.2 7.2 6.5 68 2.7 SSW 22 30 12 16 1026.5 1026.5 0.0
28/10:30am 11.7 7.4 7.0 73 2.2 SW 19 28 10 15 1026.4 1026.4 0.0
28/10:00am 10.9 6.8 8.0 82 1.4 SW 19 24 10 13 1026.4 1026.4 0.0
28/09:30am 9.7 6.7 7.5 86 1.0 SW 13 17 7 9 1026.4 1026.4 0.0
28/09:00am 9.7 6.2 7.3 85 1.1 SW 15 22 8 12 1026.2 1026.2 1.4
28/08:30am 9.4 5.0 7.3 87 1.0 SW 20 28 11 15 1026.0 1026.0 1.4
28/08:00am 8.3 4.8 7.1 92 0.6 WSW 15 20 8 11 1025.8 1025.8 1.4
28/07:30am 7.7 4.4 6.5 92 0.5 WSW 13 17 7 9 1025.6 1025.6 1.4
28/07:00am 7.6 4.3 6.2 91 0.6 WSW 13 19 7 10 1025.3 1025.3 1.4
28/06:30am 7.5 3.7 6.0 90 0.7 WSW 15 20 8 11 1025.0 1025.0 1.4
28/06:00am 7.9 3.8 6.0 88 0.9 WSW 17 22 9 12 1024.9 1024.9 1.4
28/05:30am 8.1 3.6 6.2 88 0.9 WSW 19 26 10 14 1024.5 1024.5 1.4
28/05:00am 7.8 4.4 5.9 88 0.9 WSW 13 17 7 9 1024.3 1024.3 1.4
28/04:30am 8.0 4.7 6.3 89 0.8 W 13 17 7 9 1024.2 1024.2 1.4
28/04:00am 7.9 4.5 6.0 88 0.9 W 13 17 7 9 1024.2 1024.2 1.4
28/03:30am 8.0 5.3 5.8 86 1.0 WSW 9 11 5 6 1024.2 1024.2 1.4
28/03:00am 8.6 5.3 6.4 86 1.0 W 13 15 7 8 1024.3 1024.3 1.4
28/02:30am 8.3 5.8 6.4 88 0.9 WSW 9 13 5 7 1024.4 1024.4 1.4
28/02:00am 7.9 5.3 6.2 89 0.8 WSW 9 13 5 7 1024.3 1024.3 1.4

Latest Capital City Observations: Canberra | Sydney | Melbourne | Brisbane | Adelaide | Perth | Hobart | Darwin

Other Formats:

Comma delimited format used in spreadsheet applications
http://www.bom.gov.au/fwo/IDV60901/IDV60901.94865.axf

JavaScript Object Notation format (JSON) in row-major order
http://www.bom.gov.au/fwo/IDV60901/IDV60901.94865.json